Time;durP1;ratioP1;P1;durP2;ratioP2;P2;SDS_P1;SDS_P2;PMS_P1;PMS_P2;Temp;Humidity;BMP_temperature;BMP_pressure;BME280_temperature;BME280_humidity;BME280_pressure;Samples;Min_cycle;Max_cycle;Signal;HPM_P1;HPM_P2
2023/08/24 00:00:41;;;;;;;3.42;1.30;;;20.10;82.00;;;;;;4995756;28;20057;-83
2023/08/24 00:03:08;;;;;;;3.88;1.20;;;20.10;82.10;;;;;;4995687;28;20022;-82
2023/08/24 00:05:36;;;;;;;3.47;1.13;;;20.00;82.30;;;;;;4980040;28;20045;-83
2023/08/24 00:08:06;;;;;;;4.38;1.27;;;20.00;82.50;;;;;;4964989;28;20456;-82
2023/08/24 00:10:32;;;;;;;4.25;1.50;;;20.00;82.70;;;;;;4999608;28;20049;-83
2023/08/24 00:12:58;;;;;;;5.95;2.05;;;20.00;82.80;;;;;;4967354;28;20037;-82
2023/08/24 00:15:24;;;;;;;5.45;1.88;;;20.00;82.90;;;;;;4999160;28;20425;-82
2023/08/24 00:17:49;;;;;;;5.18;1.73;;;19.90;83.00;;;;;;4999184;28;20026;-82
2023/08/24 00:20:15;;;;;;;5.45;1.58;;;20.00;83.10;;;;;;4999193;28;20401;-82
2023/08/24 00:22:41;;;;;;;4.78;1.38;;;19.90;83.20;;;;;;4999196;28;20121;-82
2023/08/24 00:25:08;;;;;;;3.67;1.02;;;19.90;83.30;;;;;;4982723;28;20394;-82
2023/08/24 00:27:35;;;;;;;5.25;1.70;;;19.90;83.40;;;;;;4999311;28;20477;-82
2023/08/24 00:30:03;;;;;;;6.60;1.98;;;19.90;83.50;;;;;;4982644;28;20113;-82
2023/08/24 00:32:29;;;;;;;5.32;1.40;;;19.90;83.70;;;;;;4998964;28;20439;-82
2023/08/24 00:34:55;;;;;;;2.53;1.15;;;19.80;83.90;;;;;;4999070;28;20057;-82
2023/08/24 00:37:21;;;;;;;4.80;1.20;;;19.80;83.90;;;;;;4982972;28;20033;-82
2023/08/24 00:39:47;;;;;;;4.45;1.40;;;19.80;84.10;;;;;;4982663;28;20025;-82
2023/08/24 00:42:15;;;;;;;5.03;1.10;;;19.80;84.30;;;;;;4966431;28;20029;-82
2023/08/24 00:44:41;;;;;;;3.65;1.50;;;19.80;84.40;;;;;;4967057;28;20033;-82
2023/08/24 00:47:08;;;;;;;5.78;1.50;;;19.80;84.50;;;;;;4998795;28;20061;-82
2023/08/24 00:49:34;;;;;;;3.33;1.40;;;19.80;84.60;;;;;;4999201;28;20061;-82
2023/08/24 00:52:01;;;;;;;2.95;1.40;;;19.70;84.70;;;;;;4966323;28;20095;-82
2023/08/24 00:54:26;;;;;;;6.55;1.83;;;19.70;84.90;;;;;;4998535;28;20018;-83
2023/08/24 00:56:53;;;;;;;3.72;1.70;;;19.70;85.10;;;;;;4982491;28;20493;-82
2023/08/24 00:59:19;;;;;;;4.72;1.73;;;19.70;85.20;;;;;;4966471;28;20057;-84
2023/08/24 01:01:46;;;;;;;5.07;1.70;;;19.70;85.30;;;;;;4982344;28;20573;-85
2023/08/24 01:04:13;;;;;;;5.82;1.45;;;19.70;85.40;;;;;;4998727;28;20018;-85
2023/08/24 01:06:38;;;;;;;3.45;1.38;;;19.60;85.40;;;;;;4982418;28;20041;-84
2023/08/24 01:09:05;;;;;;;5.20;1.58;;;19.70;85.60;;;;;;4998102;28;20515;-82
2023/08/24 01:12:26;;;;;;;4.70;2.08;;;19.60;85.60;;;;;;4966472;28;20050;-82
2023/08/24 01:14:54;;;;;;;3.65;1.27;;;19.70;85.90;;;;;;4929576;28;20110;-82
2023/08/24 01:17:23;;;;;;;4.40;1.80;;;19.60;85.80;;;;;;4999031;28;20022;-82
2023/08/24 01:19:50;;;;;;;3.58;1.88;;;19.70;86.00;;;;;;4982244;28;20030;-82
2023/08/24 01:22:27;;;;;;;8.02;2.25;;;19.70;86.00;;;;;;5016243;28;20025;-82
2023/08/24 01:25:12;;;;;;;4.82;2.13;;;19.60;86.10;;;;;;4998340;28;20030;-83
2023/08/24 01:27:39;;;;;;;4.32;2.00;;;19.60;86.30;;;;;;4998248;28;20030;-83
2023/08/24 01:30:05;;;;;;;7.28;2.58;;;19.60;86.40;;;;;;4981985;28;20026;-82
2023/08/24 01:32:35;;;;;;;6.78;2.58;;;19.50;86.40;;;;;;5014263;28;20018;-82
2023/08/24 01:35:06;;;;;;;4.53;2.10;;;19.60;86.70;;;;;;4997829;28;20112;-83
2023/08/24 01:37:35;;;;;;;4.10;2.10;;;19.60;87.00;;;;;;5015301;28;20343;-83
2023/08/24 01:40:13;;;;;;;7.05;2.30;;;19.50;87.10;;;;;;4965718;28;20030;-83
2023/08/24 01:42:54;;;;;;;7.72;2.72;;;19.50;87.30;;;;;;4997772;28;20112;-82
2023/08/24 01:45:24;;;;;;;6.22;2.67;;;19.50;87.50;;;;;;5015208;28;20077;-83
2023/08/24 01:47:52;;;;;;;8.48;2.65;;;19.50;87.50;;;;;;4997610;28;20092;-85
2023/08/24 01:50:18;;;;;;;8.55;2.97;;;19.50;87.70;;;;;;4997556;28;20022;-85
2023/08/24 01:52:44;;;;;;;6.22;2.85;;;19.50;87.90;;;;;;4981577;28;20030;-85
2023/08/24 01:55:11;;;;;;;5.85;3.08;;;19.50;88.10;;;;;;4965481;28;20030;-85
2023/08/24 01:57:37;;;;;;;6.30;2.72;;;19.50;88.30;;;;;;4997568;28;20096;-85
2023/08/24 02:00:06;;;;;;;8.45;2.90;;;19.50;88.50;;;;;;4997317;28;20047;-85
2023/08/24 02:02:33;;;;;;;6.25;3.40;;;19.50;88.70;;;;;;4981758;28;20041;-85
2023/08/24 02:04:59;;;;;;;6.72;2.53;;;19.50;88.90;;;;;;4981442;28;20049;-85
2023/08/24 02:07:24;;;;;;;8.35;3.28;;;19.50;89.00;;;;;;4965062;28;20034;-84
2023/08/24 02:09:50;;;;;;;7.53;3.38;;;19.60;89.10;;;;;;4981109;28;20033;-85
2023/08/24 02:12:15;;;;;;;8.70;3.05;;;19.60;89.30;;;;;;4965318;28;20026;-84
2023/08/24 02:14:41;;;;;;;5.70;2.88;;;19.60;89.50;;;;;;4997405;28;20022;-84
2023/08/24 02:17:07;;;;;;;7.38;3.30;;;19.60;89.60;;;;;;4981033;28;20056;-84
2023/08/24 02:19:32;;;;;;;6.88;3.47;;;19.60;89.70;;;;;;4980853;28;20117;-85
2023/08/24 02:21:58;;;;;;;6.22;3.05;;;19.60;89.80;;;;;;4964852;28;20133;-84
2023/08/24 02:24:24;;;;;;;6.13;2.83;;;19.60;89.90;;;;;;4980827;28;20084;-84
2023/08/24 02:26:49;;;;;;;9.43;4.05;;;19.60;90.00;;;;;;4980819;28;20053;-84
2023/08/24 02:29:15;;;;;;;7.75;4.00;;;19.70;90.00;;;;;;4964782;28;20080;-84
2023/08/24 02:31:41;;;;;;;4.80;3.25;;;19.70;90.00;;;;;;4996800;28;20064;-85
2023/08/24 02:34:06;;;;;;;7.03;3.47;;;19.70;90.10;;;;;;4980505;28;20474;-83
2023/08/24 02:36:33;;;;;;;6.90;3.65;;;19.70;90.20;;;;;;4980434;28;20025;-82
2023/08/24 02:38:59;;;;;;;8.15;3.72;;;19.70;90.30;;;;;;4996708;28;20053;-83
2023/08/24 02:41:26;;;;;;;6.18;3.53;;;19.70;90.30;;;;;;4980588;28;20478;-83
2023/08/24 02:43:51;;;;;;;6.25;3.85;;;19.70;90.40;;;;;;4996545;28;20037;-83
2023/08/24 02:46:18;;;;;;;9.02;4.03;;;19.70;90.50;;;;;;4964199;28;20026;-83
2023/08/24 02:48:44;;;;;;;7.07;4.35;;;19.70;90.60;;;;;;4964331;28;20029;-84
2023/08/24 02:51:10;;;;;;;9.00;4.53;;;19.70;90.70;;;;;;4996405;28;20030;-83
2023/08/24 02:53:36;;;;;;;7.20;4.63;;;19.70;90.80;;;;;;4996630;28;20033;-85
2023/08/24 02:56:02;;;;;;;8.38;4.55;;;19.70;90.90;;;;;;4996556;28;20014;-86
2023/08/24 02:58:29;;;;;;;8.75;4.95;;;19.70;90.90;;;;;;4980419;28;20501;-86
2023/08/24 03:00:55;;;;;;;6.85;4.38;;;19.70;91.00;;;;;;4996436;28;20457;-86
2023/08/24 03:03:22;;;;;;;9.63;4.68;;;19.70;91.10;;;;;;5013989;28;20052;-86
2023/08/24 03:06:07;;;;;;;9.10;5.03;;;19.70;91.20;;;;;;4980589;28;20040;-86
2023/08/24 03:08:34;;;;;;;10.38;4.30;;;19.70;91.30;;;;;;4996294;28;20052;-86
2023/08/24 03:11:01;;;;;;;8.20;4.15;;;19.70;91.30;;;;;;4996362;28;20029;-84
2023/08/24 03:13:27;;;;;;;9.55;4.70;;;19.70;91.40;;;;;;4980143;28;20040;-85
2023/08/24 03:15:53;;;;;;;8.23;5.07;;;19.70;91.60;;;;;;5013784;28;20022;-84
2023/08/24 03:18:19;;;;;;;13.52;5.53;;;19.70;91.70;;;;;;4996250;28;20036;-86
2023/08/24 03:20:46;;;;;;;11.15;4.70;;;19.70;91.70;;;;;;4979910;28;20026;-85
2023/08/24 03:23:12;;;;;;;10.55;5.95;;;19.60;91.70;;;;;;4996226;28;20502;-84
2023/08/24 03:25:40;;;;;;;9.90;5.07;;;19.60;91.80;;;;;;4996211;28;20030;-86
2023/08/24 03:28:07;;;;;;;14.05;5.05;;;19.50;91.80;;;;;;4996451;28;20022;-86
2023/08/24 03:30:37;;;;;;;8.90;5.30;;;19.50;91.90;;;;;;4995997;28;20022;-85
2023/08/24 03:33:04;;;;;;;8.82;5.38;;;19.50;92.00;;;;;;4980210;28;20026;-86
2023/08/24 03:35:33;;;;;;;8.68;4.82;;;19.50;92.10;;;;;;4979931;28;20080;-85
2023/08/24 03:37:59;;;;;;;8.48;4.85;;;19.50;92.20;;;;;;4996273;28;20041;-85
2023/08/24 03:40:25;;;;;;;10.00;5.57;;;19.50;92.30;;;;;;4996165;28;20028;-85
2023/08/24 03:42:52;;;;;;;8.00;4.90;;;19.50;92.40;;;;;;4964689;28;20029;-85
2023/08/24 03:45:18;;;;;;;9.23;4.97;;;19.50;92.50;;;;;;4984276;28;20084;-85
2023/08/24 03:47:44;;;;;;;9.02;4.43;;;19.40;92.50;;;;;;5000092;28;20038;-85
2023/08/24 03:50:09;;;;;;;8.23;4.82;;;19.40;92.60;;;;;;4983715;28;20038;-85
2023/08/24 03:52:35;;;;;;;9.60;5.68;;;19.40;92.70;;;;;;4983597;28;20030;-84
2023/08/24 03:55:01;;;;;;;9.65;4.95;;;19.40;92.70;;;;;;4968723;28;20058;-83
2023/08/24 03:57:27;;;;;;;11.30;6.15;;;19.40;92.70;;;;;;4966642;28;20064;-84
2023/08/24 03:59:54;;;;;;;16.35;6.53;;;19.40;92.90;;;;;;4994776;28;20046;-83
2023/08/24 04:02:19;;;;;;;10.63;6.18;;;19.30;93.00;;;;;;5015112;28;20528;-83
2023/08/24 04:04:46;;;;;;;10.05;5.75;;;19.20;93.10;;;;;;5032155;28;20060;-83
2023/08/24 04:07:11;;;;;;;10.40;5.93;;;19.20;93.00;;;;;;5016022;28;20030;-83
2023/08/24 04:09:37;;;;;;;11.38;4.90;;;19.20;93.00;;;;;;5014028;28;20381;-83
2023/08/24 04:12:03;;;;;;;8.50;5.07;;;19.10;93.00;;;;;;4984329;28;20529;-83
2023/08/24 04:14:28;;;;;;;10.05;5.78;;;19.10;93.20;;;;;;4982993;28;20379;-82
2023/08/24 04:16:55;;;;;;;10.75;5.15;;;19.10;93.20;;;;;;4972487;28;20360;-84
2023/08/24 04:19:20;;;;;;;11.80;5.53;;;19.00;93.30;;;;;;4993110;28;20025;-83
2023/08/24 04:21:46;;;;;;;8.30;5.20;;;19.00;93.40;;;;;;4998849;28;20037;-83
2023/08/24 04:24:11;;;;;;;8.02;5.03;;;19.00;93.40;;;;;;4965406;28;20037;-83
2023/08/24 04:26:37;;;;;;;9.63;5.88;;;19.00;93.40;;;;;;4964941;28;20033;-83
2023/08/24 04:29:03;;;;;;;8.90;5.20;;;18.90;93.50;;;;;;4998445;28;20029;-83
2023/08/24 04:31:28;;;;;;;7.90;4.90;;;18.90;93.50;;;;;;4966763;28;20030;-83
2023/08/24 04:33:54;;;;;;;12.57;5.30;;;18.90;93.60;;;;;;4982846;28;20018;-84
2023/08/24 04:36:20;;;;;;;8.70;5.40;;;18.90;93.70;;;;;;4966680;28;20120;-83
2023/08/24 04:38:45;;;;;;;12.10;5.63;;;18.90;93.80;;;;;;4982718;28;20506;-83
2023/08/24 04:41:12;;;;;;;7.93;4.95;;;18.80;93.90;;;;;;4966625;28;20069;-83
2023/08/24 04:43:38;;;;;;;8.13;5.32;;;18.80;93.90;;;;;;4982696;28;20026;-83
2023/08/24 04:46:03;;;;;;;9.15;4.82;;;18.90;94.10;;;;;;4982743;28;20026;-83
2023/08/24 04:48:32;;;;;;;9.23;5.78;;;18.80;94.20;;;;;;4982900;28;20482;-82
2023/08/24 04:50:59;;;;;;;8.73;5.55;;;18.80;94.30;;;;;;4982853;28;20022;-82
2023/08/24 04:53:25;;;;;;;9.63;5.50;;;18.80;94.40;;;;;;4998626;28;20109;-82
2023/08/24 04:55:51;;;;;;;9.82;5.13;;;18.80;94.50;;;;;;4997408;28;20033;-82
2023/08/24 04:58:17;;;;;;;7.85;5.35;;;18.80;94.60;;;;;;4982231;28;20011;-82
2023/08/24 05:00:43;;;;;;;11.05;5.60;;;18.80;94.70;;;;;;4998488;28;20054;-82
2023/08/24 05:03:09;;;;;;;9.80;5.18;;;18.80;94.70;;;;;;4982151;28;20026;-81
2023/08/24 05:05:36;;;;;;;10.65;5.82;;;18.80;94.80;;;;;;4998556;28;20042;-82
2023/08/24 05:08:06;;;;;;;8.55;5.78;;;18.80;94.90;;;;;;4998355;28;20026;-82
2023/08/24 05:10:32;;;;;;;9.65;5.53;;;18.80;95.00;;;;;;4998226;28;20077;-81
2023/08/24 05:12:59;;;;;;;8.45;4.82;;;18.80;95.00;;;;;;4982186;28;20022;-82
2023/08/24 05:15:25;;;;;;;8.48;4.82;;;18.90;95.10;;;;;;4998746;28;20018;-81
2023/08/24 05:17:54;;;;;;;10.70;5.93;;;18.90;95.10;;;;;;4982120;28;20390;-82
2023/08/24 05:20:21;;;;;;;8.88;5.80;;;18.90;95.50;;;;;;4982444;28;20037;-82
2023/08/24 05:22:47;;;;;;;9.25;6.13;;;18.90;95.20;;;;;;4998128;28;20030;-82
2023/08/24 05:25:13;;;;;;;10.30;5.70;;;18.90;95.20;;;;;;4997931;28;20026;-82
2023/08/24 05:27:39;;;;;;;9.52;5.50;;;18.80;95.30;;;;;;4997939;28;20385;-82
2023/08/24 05:30:06;;;;;;;9.50;5.05;;;19.00;95.30;;;;;;4997959;28;20044;-82
2023/08/24 05:32:31;;;;;;;11.05;5.72;;;18.90;95.30;;;;;;4998390;28;20478;-82
2023/08/24 05:34:57;;;;;;;8.88;5.97;;;19.00;95.40;;;;;;4998113;28;20088;-82
2023/08/24 05:37:24;;;;;;;8.23;5.53;;;19.00;95.40;;;;;;4965696;28;20064;-81
2023/08/24 05:39:49;;;;;;;8.25;5.05;;;19.00;95.50;;;;;;4998226;28;20034;-82
2023/08/24 05:42:15;;;;;;;9.52;5.72;;;19.10;95.60;;;;;;4965331;28;20029;-82
2023/08/24 05:44:41;;;;;;;8.20;5.50;;;19.10;95.60;;;;;;4965380;28;20030;-82
2023/08/24 05:47:07;;;;;;;10.52;5.50;;;19.10;95.60;;;;;;4970422;28;20034;-82
2023/08/24 05:49:33;;;;;;;8.93;5.43;;;19.10;95.60;;;;;;4997730;28;20528;-83
2023/08/24 05:51:58;;;;;;;8.63;5.38;;;19.10;95.70;;;;;;5030201;28;20014;-82
2023/08/24 05:54:24;;;;;;;10.20;6.22;;;19.10;95.70;;;;;;5013780;28;20099;-83
2023/08/24 05:56:50;;;;;;;15.60;6.10;;;19.20;95.70;;;;;;4997474;28;20527;-83
2023/08/24 05:59:18;;;;;;;9.38;5.90;;;19.20;95.80;;;;;;4997583;28;20108;-83
2023/08/24 06:01:44;;;;;;;8.38;4.43;;;19.30;95.80;;;;;;5030134;28;20485;-83
2023/08/24 06:04:10;;;;;;;8.95;5.63;;;19.30;95.80;;;;;;4997710;28;20121;-83
2023/08/24 06:06:37;;;;;;;9.00;5.20;;;19.30;95.80;;;;;;5013203;28;20041;-83
2023/08/24 06:09:06;;;;;;;10.23;5.65;;;19.30;95.80;;;;;;5029727;28;20482;-82
2023/08/24 06:11:35;;;;;;;10.57;5.88;;;19.40;95.90;;;;;;5029782;28;20030;-82
2023/08/24 06:14:01;;;;;;;10.73;6.35;;;19.40;95.90;;;;;;4997236;28;20482;-82
2023/08/24 06:16:28;;;;;;;9.00;5.93;;;19.40;95.80;;;;;;5030149;28;20060;-82
2023/08/24 06:18:54;;;;;;;11.07;6.90;;;19.40;95.80;;;;;;5027064;28;20018;-82
2023/08/24 06:21:20;;;;;;;11.73;6.38;;;19.40;95.80;;;;;;4996350;28;20045;-83
2023/08/24 06:23:47;;;;;;;10.88;6.93;;;19.50;95.80;;;;;;4996415;28;20034;-83
2023/08/24 06:26:13;;;;;;;10.20;6.80;;;19.50;95.70;;;;;;4996719;28;20018;-83
2023/08/24 06:28:39;;;;;;;10.65;6.55;;;19.50;95.70;;;;;;4977337;28;20057;-83
2023/08/24 06:31:07;;;;;;;10.45;7.43;;;19.50;95.70;;;;;;4994407;28;20015;-83
2023/08/24 06:33:38;;;;;;;10.45;6.38;;;19.60;95.70;;;;;;5013941;28;20485;-83
2023/08/24 06:36:08;;;;;;;9.80;6.93;;;19.60;95.70;;;;;;5010657;28;20018;-83
2023/08/24 06:38:34;;;;;;;10.48;7.28;;;19.70;95.70;;;;;;5013817;28;20355;-83
2023/08/24 06:40:59;;;;;;;11.90;7.25;;;19.70;95.70;;;;;;4996232;28;20025;-83
2023/08/24 06:43:26;;;;;;;8.68;6.35;;;19.70;95.60;;;;;;5012829;28;20544;-83
2023/08/24 06:45:51;;;;;;;10.98;7.35;;;19.80;95.60;;;;;;4996333;28;20070;-83
2023/08/24 06:48:20;;;;;;;10.57;6.63;;;19.80;95.60;;;;;;4996286;28;20053;-82
2023/08/24 06:50:46;;;;;;;11.40;6.97;;;19.80;95.60;;;;;;4996642;28;20026;-82
2023/08/24 06:53:11;;;;;;;11.13;7.40;;;19.90;95.60;;;;;;4996562;28;20048;-82
2023/08/24 06:55:37;;;;;;;13.82;6.78;;;19.90;95.50;;;;;;4995869;28;20030;-82
2023/08/24 06:58:05;;;;;;;11.57;6.63;;;19.90;95.50;;;;;;4995869;28;20389;-81
2023/08/24 07:00:31;;;;;;;10.75;7.35;;;20.00;95.40;;;;;;5013141;28;20053;-82
2023/08/24 07:02:57;;;;;;;14.20;7.68;;;20.00;95.40;;;;;;4995594;28;20092;-82
2023/08/24 07:05:23;;;;;;;10.45;6.53;;;20.10;95.30;;;;;;4995811;28;20049;-81
2023/08/24 07:07:53;;;;;;;12.27;6.97;;;20.10;95.20;;;;;;4995793;28;20065;-81
2023/08/24 07:10:19;;;;;;;10.88;6.55;;;20.10;95.20;;;;;;4993024;28;20018;-82
2023/08/24 07:12:45;;;;;;;11.65;7.65;;;20.20;95.10;;;;;;4995547;28;20020;-81
2023/08/24 07:15:12;;;;;;;11.48;6.38;;;20.20;95.00;;;;;;4995755;28;20113;-82
2023/08/24 07:17:38;;;;;;;11.45;6.57;;;20.30;95.00;;;;;;4995406;28;20022;-81
2023/08/24 07:20:05;;;;;;;10.45;6.03;;;20.30;94.90;;;;;;4996098;28;20037;-82
2023/08/24 07:22:32;;;;;;;14.93;6.72;;;20.40;94.90;;;;;;4980464;28;20057;-82
2023/08/24 07:24:57;;;;;;;11.18;6.45;;;20.40;94.90;;;;;;4996061;28;20018;-81
2023/08/24 07:27:23;;;;;;;9.65;6.05;;;20.50;94.90;;;;;;4979658;28;20036;-82
2023/08/24 07:29:49;;;;;;;10.75;6.38;;;20.60;94.80;;;;;;4995912;28;20053;-82
2023/08/24 07:32:14;;;;;;;11.05;6.82;;;20.60;94.80;;;;;;4979707;28;20037;-82
2023/08/24 07:34:40;;;;;;;12.52;7.05;;;20.70;94.70;;;;;;4979628;28;20029;-82
2023/08/24 07:37:06;;;;;;;11.80;5.80;;;20.70;94.50;;;;;;4979505;28;20061;-82
2023/08/24 07:39:32;;;;;;;12.88;7.13;;;20.80;94.40;;;;;;4979575;28;20026;-82
2023/08/24 07:41:58;;;;;;;10.20;5.93;;;20.90;94.30;;;;;;5012149;28;20520;-82
2023/08/24 07:44:23;;;;;;;21.88;6.57;;;21.00;94.10;;;;;;4979725;28;20045;-81
2023/08/24 07:46:49;;;;;;;16.52;5.82;;;21.00;93.90;;;;;;4979776;28;20045;-82
2023/08/24 07:49:15;;;;;;;12.45;6.35;;;21.10;93.70;;;;;;4995590;28;20026;-82
2023/08/24 07:51:42;;;;;;;14.63;6.63;;;21.10;93.60;;;;;;4979456;28;20030;-83
2023/08/24 07:54:08;;;;;;;10.57;6.57;;;21.20;93.40;;;;;;5013470;28;20022;-81
2023/08/24 07:56:35;;;;;;;9.15;5.57;;;21.30;93.20;;;;;;4995696;28;20549;-82
2023/08/24 07:59:03;;;;;;;10.35;5.65;;;21.40;93.00;;;;;;4995675;28;20049;-81
2023/08/24 08:01:30;;;;;;;9.23;5.75;;;21.50;92.90;;;;;;4979183;28;20133;-82
2023/08/24 08:03:56;;;;;;;10.68;6.18;;;21.60;92.70;;;;;;5011958;28;20080;-83
2023/08/24 08:06:24;;;;;;;10.63;6.18;;;21.70;92.40;;;;;;4995188;28;20042;-81
2023/08/24 08:08:51;;;;;;;10.55;5.90;;;21.80;92.20;;;;;;4979903;28;20120;-83
2023/08/24 08:11:17;;;;;;;10.30;5.80;;;21.80;92.00;;;;;;4995698;28;20418;-84
2023/08/24 08:13:46;;;;;;;11.20;5.80;;;21.90;91.80;;;;;;4995966;28;20045;-83
2023/08/24 08:16:11;;;;;;;10.52;5.38;;;22.10;91.80;;;;;;5013284;28;20481;-83
2023/08/24 08:18:38;;;;;;;11.27;5.25;;;22.20;91.60;;;;;;4995540;28;20021;-83
2023/08/24 08:21:20;;;;;;;9.73;4.90;;;22.30;91.60;;;;;;4995376;28;20458;-83
2023/08/24 08:23:46;;;;;;;8.50;5.00;;;22.50;91.50;;;;;;5013203;28;20026;-84
2023/08/24 08:26:13;;;;;;;9.18;5.50;;;22.60;91.40;;;;;;4995702;28;20076;-83
2023/08/24 08:28:39;;;;;;;11.23;5.43;;;22.70;91.20;;;;;;4995883;28;20120;-82
2023/08/24 08:31:05;;;;;;;9.40;5.07;;;22.80;91.00;;;;;;4999144;28;20021;-82
2023/08/24 08:33:32;;;;;;;10.18;5.57;;;23.00;90.80;;;;;;5015646;28;20478;-81
2023/08/24 08:36:00;;;;;;;9.93;5.78;;;23.10;90.60;;;;;;5001200;28;20022;-83
2023/08/24 08:38:26;;;;;;;9.50;4.70;;;23.20;90.40;;;;;;4998817;28;20054;-84
2023/08/24 08:41:01;;;;;;;9.32;5.03;;;23.40;90.20;;;;;;4982866;28;20052;-79
2023/08/24 08:43:27;;;;;;;14.70;5.93;;;23.40;90.00;;;;;;4998737;28;20049;-80
2023/08/24 08:45:55;;;;;;;8.93;5.20;;;23.60;89.50;;;;;;4998971;28;20018;-80
2023/08/24 08:48:22;;;;;;;8.73;5.78;;;23.70;89.10;;;;;;4999073;28;20457;-80
2023/08/24 08:50:56;;;;;;;8.38;5.47;;;23.80;88.40;;;;;;5016612;28;20025;-80
2023/08/24 08:53:29;;;;;;;;;;;23.90;88.40;;;;;;4999381;28;20022;-81
2023/08/24 08:55:57;;;;;;;10.90;4.88;;;24.00;87.50;;;;;;4998691;28;19910;-80
2023/08/24 08:58:24;;;;;;;8.95;5.07;;;24.10;87.60;;;;;;4998565;28;20070;-80
2023/08/24 09:00:52;;;;;;;10.85;4.80;;;24.20;87.20;;;;;;5016126;28;20049;-81
2023/08/24 09:03:21;;;;;;;10.50;5.70;;;24.30;86.80;;;;;;4998515;28;20022;-81
2023/08/24 09:05:52;;;;;;;8.05;4.78;;;24.30;86.30;;;;;;5016167;28;20034;-80
2023/08/24 09:08:18;;;;;;;9.20;5.00;;;24.50;86.30;;;;;;4998657;28;20022;-81
2023/08/24 09:10:45;;;;;;;11.75;5.53;;;24.60;85.40;;;;;;4998375;28;20037;-81
2023/08/24 09:13:11;;;;;;;12.20;5.38;;;24.70;85.00;;;;;;4998388;28;20030;-82
2023/08/24 09:15:37;;;;;;;9.20;4.63;;;24.90;84.40;;;;;;4998332;28;20496;-81
2023/08/24 09:18:05;;;;;;;8.23;4.90;;;25.00;83.90;;;;;;4997226;28;20496;-81
2023/08/24 09:20:31;;;;;;;11.43;5.45;;;25.10;83.50;;;;;;4998032;28;20034;-82
2023/08/24 09:22:58;;;;;;;8.77;4.97;;;25.20;83.00;;;;;;5015718;28;20084;-81
2023/08/24 09:25:24;;;;;;;8.32;4.65;;;25.30;82.60;;;;;;4997822;28;20021;-81
2023/08/24 09:28:08;;;;;;;9.27;5.20;;;25.40;82.10;;;;;;4992833;28;20113;-82
2023/08/24 09:30:37;;;;;;;9.65;4.70;;;25.50;81.80;;;;;;4995556;28;20040;-82
2023/08/24 09:33:09;;;;;;;10.82;5.30;;;25.60;81.60;;;;;;4998115;28;20026;-82
2023/08/24 09:35:38;;;;;;;8.23;5.03;;;25.70;80.90;;;;;;5012005;28;20425;-81
2023/08/24 09:38:18;;;;;;;11.60;5.15;;;25.80;80.40;;;;;;4997540;28;20064;-82
2023/08/24 09:40:51;;;;;;;7.95;4.53;;;25.90;79.90;;;;;;5012422;28;20022;-82
2023/08/24 09:43:17;;;;;;;8.52;4.63;;;25.90;79.70;;;;;;4997554;28;20029;-81
2023/08/24 09:45:53;;;;;;;7.65;4.38;;;26.20;79.50;;;;;;5014765;28;20026;-82
2023/08/24 09:48:19;;;;;;;9.27;4.97;;;26.30;78.90;;;;;;5012117;28;20108;-81
2023/08/24 09:50:49;;;;;;;9.55;4.70;;;26.40;78.50;;;;;;4996447;28;20022;-81
2023/08/24 09:53:23;;;;;;;7.95;4.53;;;26.50;77.90;;;;;;4997116;28;20026;-82
2023/08/24 09:56:00;;;;;;;8.02;4.30;;;26.60;77.60;;;;;;4996854;28;20072;-82
2023/08/24 09:58:30;;;;;;;11.85;4.45;;;26.80;77.40;;;;;;4997174;28;20022;-81
2023/08/24 10:00:56;;;;;;;9.30;4.18;;;27.00;77.10;;;;;;5014233;28;20092;-83
2023/08/24 10:03:28;;;;;;;7.30;3.97;;;27.10;76.70;;;;;;4996836;28;20024;-83
2023/08/24 10:05:59;;;;;;;7.68;4.00;;;27.20;76.10;;;;;;5011109;28;20014;-81
2023/08/24 10:08:27;;;;;;;7.90;3.70;;;27.20;75.60;;;;;;4995912;28;20446;-82
2023/08/24 10:11:01;;;;;;;5.75;3.22;;;27.20;75.00;;;;;;4996921;28;20076;-81
2023/08/24 10:13:38;;;;;;;7.45;3.65;;;27.10;74.50;;;;;;4997125;28;20041;-81
2023/08/24 10:16:12;;;;;;;7.72;4.03;;;27.10;74.20;;;;;;4997236;28;20022;-82
2023/08/24 10:18:39;;;;;;;8.48;3.95;;;27.00;74.60;;;;;;5014481;28;20386;-82
2023/08/24 10:21:05;;;;;;;7.40;3.30;;;27.00;73.80;;;;;;5014058;28;20022;-82
2023/08/24 10:23:34;;;;;;;7.38;3.75;;;26.90;73.60;;;;;;4996848;28;20076;-81
2023/08/24 10:26:02;;;;;;;8.93;4.38;;;26.80;73.10;;;;;;5013928;28;20026;-81
2023/08/24 10:28:29;;;;;;;6.90;3.72;;;26.70;73.10;;;;;;4995902;28;20493;-81
2023/08/24 10:30:57;;;;;;;7.82;3.50;;;26.60;73.20;;;;;;5014435;28;20049;-81
2023/08/24 10:33:24;;;;;;;6.88;3.22;;;26.50;73.30;;;;;;4996487;28;20105;-80
2023/08/24 10:35:50;;;;;;;8.43;3.80;;;26.50;73.40;;;;;;4996578;28;20026;-81
2023/08/24 10:38:29;;;;;;;7.95;3.47;;;26.40;73.40;;;;;;4980532;28;20071;-80
2023/08/24 10:41:04;;;;;;;7.40;3.90;;;26.30;73.50;;;;;;4996601;28;20024;-81
2023/08/24 10:43:38;;;;;;;5.60;3.38;;;26.20;73.80;;;;;;4996523;28;20026;-81
2023/08/24 10:46:13;;;;;;;5.97;3.03;;;26.20;74.10;;;;;;4996719;28;20373;-81
2023/08/24 10:48:42;;;;;;;6.30;3.45;;;26.10;74.70;;;;;;4996435;28;20030;-81
2023/08/24 10:51:14;;;;;;;6.05;3.45;;;26.00;75.20;;;;;;4996417;28;20022;-79
2023/08/24 10:53:40;;;;;;;7.93;3.70;;;25.90;75.50;;;;;;4994935;28;20367;-81
2023/08/24 10:56:14;;;;;;;6.78;4.05;;;25.80;75.80;;;;;;4995436;28;20033;-82
2023/08/24 10:58:40;;;;;;;7.13;3.85;;;25.70;76.00;;;;;;4980024;28;20022;-81
2023/08/24 11:01:06;;;;;;;6.97;3.95;;;25.70;76.00;;;;;;4964697;28;20041;-80
2023/08/24 11:03:35;;;;;;;6.95;3.65;;;25.60;76.00;;;;;;4996339;28;20175;-80
2023/08/24 11:06:01;;;;;;;7.03;3.70;;;25.70;76.20;;;;;;4980020;28;20025;-80
2023/08/24 11:08:49;;;;;;;9.95;4.18;;;25.60;76.40;;;;;;5013988;28;20029;-81
2023/08/24 11:11:27;;;;;;;7.53;4.07;;;25.60;76.70;;;;;;5013768;28;20026;-81
2023/08/24 11:14:29;;;;;;;5.95;3.60;;;25.50;76.70;;;;;;4992435;28;20030;-80
2023/08/24 11:16:59;;;;;;;11.20;4.38;;;25.50;76.90;;;;;;4994259;28;20410;-79
2023/08/24 11:19:25;;;;;;;8.88;4.13;;;25.50;77.10;;;;;;4994076;28;20022;-81
2023/08/24 11:21:51;;;;;;;8.85;4.38;;;25.50;77.10;;;;;;4976977;28;20034;-84
2023/08/24 11:24:17;;;;;;;8.90;3.97;;;25.50;77.50;;;;;;4995881;28;20058;-79
2023/08/24 11:26:51;;;;;;;8.02;4.03;;;25.40;78.20;;;;;;4979614;28;20061;-80
2023/08/24 11:29:18;;;;;;;8.38;3.67;;;25.40;77.80;;;;;;5014433;28;20022;-82
2023/08/24 11:31:44;;;;;;;10.68;4.25;;;25.40;77.90;;;;;;4998150;28;20465;-81
2023/08/24 11:34:14;;;;;;;6.97;3.60;;;25.40;77.90;;;;;;4996668;28;20065;-81
2023/08/24 11:36:47;;;;;;;9.45;4.82;;;25.50;78.10;;;;;;4995528;28;20034;-80
2023/08/24 11:39:22;;;;;;;6.63;3.67;;;25.50;77.90;;;;;;4995925;28;20496;-79
2023/08/24 11:41:58;;;;;;;7.28;3.53;;;25.60;77.80;;;;;;4995788;28;20022;-81
2023/08/24 11:44:23;;;;;;;8.13;4.10;;;25.70;77.70;;;;;;4996064;28;20030;-81
2023/08/24 11:46:49;;;;;;;10.07;4.10;;;25.70;77.50;;;;;;4995926;28;20029;-80
2023/08/24 11:49:15;;;;;;;8.65;3.40;;;25.70;77.30;;;;;;4979708;28;20129;-82
2023/08/24 11:51:41;;;;;;;10.57;4.43;;;25.80;77.40;;;;;;4995875;28;20113;-80
2023/08/24 11:54:08;;;;;;;8.73;4.30;;;25.80;77.20;;;;;;4995165;28;20462;-80
2023/08/24 11:56:40;;;;;;;8.45;4.35;;;25.90;77.00;;;;;;4995673;28;20028;-80
2023/08/24 11:59:10;;;;;;;9.93;4.47;;;25.90;76.70;;;;;;4980895;28;20034;-80
2023/08/24 12:01:36;;;;;;;10.48;5.18;;;25.90;76.60;;;;;;4995816;28;20038;-80
2023/08/24 12:04:02;;;;;;;8.10;4.10;;;26.00;76.50;;;;;;4977251;28;20104;-82
2023/08/24 12:06:28;;;;;;;10.63;4.43;;;26.10;76.50;;;;;;4982740;28;20053;-80
2023/08/24 12:08:55;;;;;;;7.85;4.25;;;26.20;76.50;;;;;;5016258;28;20452;-81
2023/08/24 12:11:25;;;;;;;6.18;4.07;;;26.20;76.20;;;;;;4983843;28;20084;-79
2023/08/24 12:13:52;;;;;;;7.30;4.50;;;26.30;76.00;;;;;;4998173;28;20022;-80
2023/08/24 12:16:20;;;;;;;14.32;5.18;;;26.30;75.90;;;;;;4996846;28;20021;-79
2023/08/24 12:18:54;;;;;;;8.27;4.63;;;26.40;75.90;;;;;;5015276;28;20018;-81
2023/08/24 12:21:20;;;;;;;10.73;4.57;;;26.40;75.70;;;;;;4997697;28;20069;-81
2023/08/24 12:24:05;;;;;;;8.15;4.38;;;26.40;75.60;;;;;;4999113;28;20022;-82
2023/08/24 12:26:32;;;;;;;10.20;4.15;;;26.50;75.50;;;;;;5014549;28;20432;-82
2023/08/24 12:29:05;;;;;;;10.18;4.38;;;26.50;75.50;;;;;;5015649;28;20030;-82
2023/08/24 12:31:31;;;;;;;7.97;4.03;;;26.50;75.60;;;;;;4999157;28;20018;-81
2023/08/24 12:34:10;;;;;;;9.93;4.05;;;26.50;75.60;;;;;;4998630;28;20033;-81
2023/08/24 12:36:37;;;;;;;8.27;4.68;;;26.50;75.60;;;;;;4997184;28;20029;-81
2023/08/24 12:39:04;;;;;;;7.70;3.92;;;26.50;75.50;;;;;;4998545;28;20036;-81
2023/08/24 12:41:30;;;;;;;9.10;4.68;;;26.40;75.50;;;;;;4998561;28;20076;-81
2023/08/24 12:43:56;;;;;;;7.70;4.22;;;26.40;75.60;;;;;;4998567;28;20056;-82
2023/08/24 12:46:23;;;;;;;9.07;4.65;;;26.40;76.30;;;;;;4998405;28;20074;-81